createdAt,value
2023-02-05T00:01:24.666Z,101807.47
2023-02-05T00:03:51.308Z,101802.97
2023-02-05T00:06:18.091Z,101806.53
2023-02-05T00:08:44.744Z,101802.06
2023-02-05T00:11:11.401Z,101802.09
2023-02-05T00:13:39.678Z,101812.63
2023-02-05T00:16:16.930Z,101808.25
2023-02-05T00:18:44.269Z,101812.66
2023-02-05T00:21:11.876Z,101809.16
2023-02-05T00:23:39.477Z,101809.16
2023-02-05T00:26:07.033Z,101813.59
2023-02-05T00:28:36.802Z,101808.34
2023-02-05T00:31:16.117Z,101820.72
2023-02-05T00:33:43.156Z,101825.19
2023-02-05T00:36:12.675Z,101828.75
2023-02-05T00:38:40.730Z,101835.84
2023-02-05T00:41:07.525Z,101832.22
2023-02-05T00:43:34.249Z,101828.72
2023-02-05T00:46:00.925Z,101833.13
2023-02-05T00:48:27.624Z,101836.72
2023-02-05T00:50:54.582Z,101835.84
2023-02-05T00:53:22.410Z,101834.03
2023-02-05T00:55:49.064Z,101827.09
2023-02-05T00:58:16.038Z,101839.41
2023-02-05T01:00:43.125Z,101841.19
2023-02-05T01:03:10.022Z,101835.09
2023-02-05T01:05:38.142Z,101850.13
2023-02-05T01:08:06.260Z,101852.75
2023-02-05T01:10:33.083Z,101857.22
2023-02-05T01:12:59.949Z,101859.88
2023-02-05T01:15:26.776Z,101866.94
2023-02-05T01:17:53.341Z,101867.81
2023-02-05T01:20:20.513Z,101865.13
2023-02-05T01:22:47.551Z,101846.69
2023-02-05T01:25:14.096Z,101856.31
2023-02-05T01:27:40.691Z,101857.28
2023-02-05T01:30:08.006Z,101843.22
2023-02-05T01:32:35.600Z,101852.88
2023-02-05T01:35:02.157Z,101846.72
2023-02-05T01:37:28.726Z,101840.50
2023-02-05T01:39:55.502Z,101849.31
2023-02-05T01:42:31.784Z,101857.22
2023-02-05T01:45:23.395Z,101845.81
2023-02-05T01:47:58.008Z,101845.78
2023-02-05T01:50:43.012Z,101850.16
2023-02-05T01:53:13.649Z,101838.78
2023-02-05T01:55:57.294Z,101837.91
2023-02-05T01:58:27.620Z,101841.47
2023-02-05T02:00:54.936Z,101851.16
2023-02-05T02:03:24.589Z,101846.81
2023-02-05T02:05:51.177Z,101854.78
2023-02-05T02:08:17.770Z,101859.19
2023-02-05T02:10:46.224Z,101853.09
2023-02-05T02:13:13.320Z,101868.03
2023-02-05T02:15:41.104Z,101869.00
2023-02-05T02:18:27.708Z,101874.22
2023-02-05T02:21:19.742Z,101872.56
2023-02-05T02:24:01.214Z,101870.81
2023-02-05T02:26:58.721Z,101883.16
2023-02-05T02:29:51.152Z,101871.72
2023-02-05T02:32:39.056Z,101868.19
2023-02-05T02:35:11.685Z,101877.06
2023-02-05T02:37:45.945Z,101880.59
2023-02-05T02:40:18.490Z,101890.31
2023-02-05T02:42:58.812Z,101882.34
2023-02-05T02:45:29.256Z,101890.25
2023-02-05T02:47:58.669Z,101892.00
2023-02-05T02:50:32.932Z,101896.38
2023-02-05T02:53:13.711Z,101898.16
2023-02-05T02:55:43.762Z,101900.84
2023-02-05T02:58:16.795Z,101896.38
2023-02-05T03:00:46.016Z,101906.03
2023-02-05T03:03:16.832Z,101903.44
2023-02-05T03:05:45.887Z,101904.34
2023-02-05T03:08:28.388Z,101906.94
2023-02-05T03:11:04.988Z,101908.72
2023-02-05T03:13:32.335Z,101909.63
2023-02-05T03:15:59.060Z,101913.16
2023-02-05T03:18:25.747Z,101926.34
2023-02-05T03:20:56.763Z,101928.09
2023-02-05T03:23:26.116Z,101932.44
2023-02-05T03:25:52.652Z,101937.66
2023-02-05T03:28:19.557Z,101935.94
2023-02-05T03:31:00.615Z,101943.78
2023-02-05T03:33:54.524Z,101962.25
2023-02-05T03:36:34.801Z,101957.81
2023-02-05T03:39:22.894Z,101970.09
2023-02-05T03:42:10.927Z,101967.44
2023-02-05T03:45:05.707Z,101957.75
2023-02-05T03:47:44.188Z,101963.91
2023-02-05T03:50:16.729Z,101970.84
2023-02-05T03:52:50.778Z,101972.66
2023-02-05T03:55:41.272Z,101963.00
2023-02-05T03:58:15.090Z,101970.03
2023-02-05T04:00:42.461Z,101972.66
2023-02-05T04:03:09.208Z,101976.97
2023-02-05T04:05:36.385Z,101979.63
2023-02-05T04:08:03.294Z,101987.53
2023-02-05T04:10:29.851Z,101990.16
2023-02-05T04:12:56.415Z,101981.28
2023-02-05T04:15:23.676Z,101989.19
2023-02-05T04:17:50.248Z,101986.53
2023-02-05T04:20:17.015Z,101988.28
2023-02-05T04:22:43.715Z,101989.13
2023-02-05T04:25:10.261Z,101995.28
2023-02-05T04:27:36.830Z,102003.22
2023-02-05T04:30:03.552Z,102004.13
2023-02-05T04:32:30.108Z,102003.22
2023-02-05T04:34:56.679Z,102006.75
2023-02-05T04:37:25.017Z,102013.78
2023-02-05T04:39:51.807Z,102010.25
2023-02-05T04:42:18.376Z,102021.63
2023-02-05T04:44:44.924Z,102021.56
2023-02-05T04:47:12.900Z,102022.47
2023-02-05T04:49:40.840Z,102023.38
2023-02-05T04:52:08.158Z,102031.28
2023-02-05T04:54:36.016Z,102023.44
2023-02-05T04:57:02.576Z,102018.16
2023-02-05T04:59:30.366Z,102026.09
2023-02-05T05:01:57.608Z,102019.06
2023-02-05T05:04:24.198Z,102024.34
2023-02-05T05:06:50.789Z,102034.06
2023-02-05T05:09:17.477Z,102039.34
2023-02-05T05:11:43.990Z,102034.13
2023-02-05T05:14:10.757Z,102040.28
2023-02-05T05:16:37.355Z,102051.72
2023-02-05T05:19:04.522Z,102052.59
2023-02-05T05:21:31.179Z,102058.72
2023-02-05T05:23:57.718Z,102059.59
2023-02-05T05:26:24.436Z,102062.25
2023-02-05T05:28:55.339Z,102070.16
2023-02-05T05:31:22.411Z,102073.69
2023-02-05T05:33:49.061Z,102071.09
2023-02-05T05:36:16.827Z,102081.69
2023-02-05T05:38:44.130Z,102080.81
2023-02-05T05:41:38.238Z,102083.47
2023-02-05T05:44:04.904Z,102080.84
2023-02-05T05:46:31.537Z,102077.38
2023-02-05T05:49:00.251Z,102085.34
2023-02-05T05:51:28.757Z,102087.06
2023-02-05T05:53:55.839Z,102087.06
2023-02-05T05:56:23.447Z,102095.00
2023-02-05T05:58:50.824Z,102090.59
2023-02-05T06:01:20.431Z,102098.47
2023-02-05T06:03:47.058Z,102099.38
2023-02-05T06:06:13.805Z,102109.03
2023-02-05T06:08:40.801Z,102108.09
2023-02-05T06:11:07.645Z,102117.75
2023-02-05T06:13:34.979Z,102121.25
2023-02-05T06:16:01.723Z,102127.38
2023-02-05T06:18:28.397Z,102120.34
2023-02-05T06:20:54.940Z,102117.69
2023-02-05T06:23:21.764Z,102123.84
2023-02-05T06:25:48.436Z,102123.84
2023-02-05T06:28:15.119Z,102122.06
2023-02-05T06:30:41.721Z,102125.59
2023-02-05T06:33:08.336Z,102122.91
2023-02-05T06:35:36.651Z,102124.63
2023-02-05T06:38:03.384Z,102122.00
2023-02-05T06:40:30.120Z,102119.28
2023-02-05T06:42:56.690Z,102121.03
2023-02-05T06:45:23.348Z,102121.03
2023-02-05T06:47:52.756Z,102124.47
2023-02-05T06:50:20.164Z,102130.63
2023-02-05T06:52:46.758Z,102127.94
2023-02-05T06:55:13.450Z,102129.69
2023-02-05T06:57:40.044Z,102134.97
2023-02-05T07:00:07.304Z,102134.97
2023-02-05T07:02:34.371Z,102146.41
2023-02-05T07:05:01.038Z,102142.00
2023-02-05T07:07:28.349Z,102142.84
2023-02-05T07:09:55.081Z,102150.81
2023-02-05T07:12:22.359Z,102144.63
2023-02-05T07:14:48.938Z,102154.34
2023-02-05T07:17:15.726Z,102152.56
2023-02-05T07:19:42.314Z,102155.19
2023-02-05T07:22:09.191Z,102159.63
2023-02-05T07:24:35.732Z,102160.53
2023-02-05T07:27:02.315Z,102164.97
2023-02-05T07:29:28.977Z,102167.59
2023-02-05T07:31:55.569Z,102171.09
2023-02-05T07:34:22.157Z,102171.09
2023-02-05T07:36:52.664Z,102172.84
2023-02-05T07:39:19.787Z,102178.91
2023-02-05T07:41:46.612Z,102178.00
2023-02-05T07:44:13.273Z,102176.19
2023-02-05T07:46:40.178Z,102185.06
2023-02-05T07:49:07.162Z,102182.44
2023-02-05T07:51:35.359Z,102177.16
2023-02-05T07:54:06.513Z,102183.34
2023-02-05T07:56:33.167Z,102178.09
2023-02-05T07:58:59.767Z,102178.19
2023-02-05T08:01:26.411Z,102177.38
2023-02-05T08:03:53.023Z,102182.63
2023-02-05T08:06:19.606Z,102174.63
2023-02-05T08:08:46.148Z,102175.41
2023-02-05T08:11:17.796Z,102176.13
2023-02-05T08:13:46.051Z,102176.00
2023-02-05T08:16:15.757Z,102170.59
2023-02-05T08:18:43.074Z,102167.78
2023-02-05T08:21:09.647Z,102164.09
2023-02-05T08:23:36.306Z,102169.19
2023-02-05T08:26:02.887Z,102169.84
2023-02-05T08:28:31.916Z,102157.25
2023-02-05T08:30:58.743Z,102150.88
2023-02-05T08:33:25.724Z,102151.47
2023-02-05T08:35:52.500Z,102152.91
2023-02-05T08:38:19.057Z,102150.13
2023-02-05T08:40:45.681Z,102155.13
2023-02-05T08:43:12.340Z,102160.06
2023-02-05T08:45:39.413Z,102155.38
2023-02-05T08:48:06.134Z,102155.03
2023-02-05T08:50:32.745Z,102157.38
2023-02-05T08:52:59.279Z,102155.22
2023-02-05T08:55:25.847Z,102150.19
2023-02-05T08:57:52.996Z,102151.25
2023-02-05T09:00:21.122Z,102153.03
2023-02-05T09:02:47.713Z,102148.75
2023-02-05T09:05:14.307Z,102141.56
2023-02-05T09:07:41.642Z,102145.03
2023-02-05T09:10:13.019Z,102146.47
2023-02-05T09:12:40.036Z,102152.94
2023-02-05T09:15:07.791Z,102158.00
2023-02-05T09:17:34.469Z,102154.66
2023-02-05T09:20:01.251Z,102137.66
2023-02-05T09:22:27.814Z,102145.16
2023-02-05T09:24:54.409Z,102133.53
2023-02-05T09:27:20.996Z,102135.03
2023-02-05T09:29:47.583Z,102132.38
2023-02-05T09:32:14.267Z,102131.28
2023-02-05T09:34:40.962Z,102135.28
2023-02-05T09:37:07.511Z,102149.19
2023-02-05T09:40:17.678Z,102153.47
2023-02-05T09:42:40.498Z,102160.91
2023-02-05T09:45:20.577Z,102155.56
2023-02-05T09:47:57.956Z,102152.72
2023-02-05T09:50:29.814Z,102173.13
2023-02-05T09:53:01.803Z,102167.41
2023-02-05T09:55:31.413Z,102159.81
2023-02-05T09:58:06.408Z,102172.94
2023-02-05T10:00:51.480Z,102176.13
2023-02-05T10:03:17.870Z,102164.72
2023-02-05T10:06:10.423Z,102157.81
2023-02-05T10:08:51.908Z,102153.31
2023-02-05T10:11:37.897Z,102154.03
2023-02-05T10:14:31.356Z,102147.13
2023-02-05T10:17:00.953Z,102145.72
2023-02-05T10:19:40.420Z,102147.44
2023-02-05T10:22:54.658Z,102144.25
2023-02-05T10:25:33.721Z,102131.56
2023-02-05T10:28:09.649Z,102127.69
2023-02-05T10:30:36.213Z,102127.50
2023-02-05T10:33:14.051Z,102121.94
2023-02-05T10:35:56.326Z,102118.13
2023-02-05T10:38:24.742Z,102128.69
2023-02-05T10:41:00.227Z,102130.97
2023-02-05T10:43:39.262Z,102128.59
2023-02-05T10:46:12.298Z,102123.78
2023-02-05T10:49:01.414Z,102124.91
2023-02-05T10:51:42.238Z,102118.31
2023-02-05T10:54:30.295Z,102118.16
2023-02-05T10:56:59.103Z,102117.78
2023-02-05T10:59:31.318Z,102103.72
2023-02-05T11:02:03.800Z,102099.38
2023-02-05T11:04:44.841Z,102105.81
2023-02-05T11:07:14.622Z,102101.50
2023-02-05T11:09:42.368Z,102104.81
2023-02-05T11:12:29.249Z,102101.69
2023-02-05T11:15:01.765Z,102090.28
2023-02-05T11:17:33.821Z,102085.25
2023-02-05T11:20:04.535Z,102084.44
2023-02-05T11:22:35.236Z,102073.41
2023-02-05T11:25:18.678Z,102073.63
2023-02-05T11:28:04.951Z,102075.06
2023-02-05T11:33:24.445Z,102077.50
2023-02-05T11:35:53.918Z,102082.97
2023-02-05T11:38:47.097Z,102075.72
2023-02-05T11:41:26.597Z,102070.13
2023-02-05T11:43:53.918Z,102055.91
2023-02-05T11:46:27.932Z,102053.13
2023-02-05T11:49:05.078Z,102054.50
2023-02-05T11:51:45.820Z,102050.59
2023-02-05T11:54:19.443Z,102051.56
2023-02-05T11:57:24.982Z,102022.94
2023-02-05T11:59:56.022Z,102027.75
2023-02-05T12:02:28.783Z,102019.22
2023-02-05T12:05:19.251Z,102027.34
2023-02-05T12:07:52.498Z,102024.72
2023-02-05T12:10:31.109Z,102027.50
2023-02-05T12:13:24.490Z,102018.94
2023-02-05T12:15:56.076Z,102018.34
2023-02-05T12:18:37.983Z,102004.28
2023-02-05T12:21:23.659Z,102016.31
2023-02-05T12:24:05.372Z,102009.00
2023-02-05T12:26:45.240Z,102004.41
2023-02-05T12:29:45.028Z,102002.50
2023-02-05T12:32:21.199Z,102001.25
2023-02-05T12:35:12.717Z,101985.75
2023-02-05T12:38:05.401Z,101991.03
2023-02-05T12:40:50.646Z,101990.56
2023-02-05T12:43:29.228Z,101983.63
2023-02-05T12:45:58.720Z,101980.84
2023-02-05T12:48:47.443Z,101967.28
2023-02-05T12:51:35.301Z,101972.50
2023-02-05T12:54:17.573Z,101972.44
2023-02-05T12:56:59.339Z,101970.94
2023-02-05T12:59:40.887Z,101968.50
2023-02-05T13:02:16.171Z,101968.03
2023-02-05T13:04:49.289Z,101959.28
2023-02-05T13:07:30.716Z,101969.09
2023-02-05T13:10:06.795Z,101963.22
2023-02-05T13:12:38.485Z,101966.66
2023-02-05T13:15:25.345Z,101961.97
2023-02-05T13:18:22.423Z,101964.88
2023-02-05T13:21:15.960Z,101972.59
2023-02-05T13:24:03.482Z,101962.09
2023-02-05T13:26:58.805Z,101958.50
2023-02-05T13:29:30.337Z,101962.50
2023-02-05T13:32:15.977Z,101967.94
2023-02-05T13:34:43.216Z,101955.34
2023-02-05T13:37:32.726Z,101959.78
2023-02-05T13:40:17.344Z,101950.03
2023-02-05T13:42:50.775Z,101962.50
2023-02-05T13:45:52.631Z,101959.28
2023-02-05T13:49:08.951Z,101966.53
2023-02-05T13:51:38.958Z,101961.75
2023-02-05T13:54:39.153Z,101961.34
2023-02-05T13:57:27.551Z,101958.06
2023-02-05T13:59:54.788Z,101967.31
2023-02-05T14:02:38.206Z,101972.34
2023-02-05T14:05:06.253Z,101980.94
2023-02-05T14:07:46.744Z,101977.47
2023-02-05T14:10:29.568Z,101982.88
2023-02-05T14:13:16.302Z,101987.34
2023-02-05T14:15:43.940Z,101987.34
2023-02-05T14:18:12.802Z,101982.91
2023-02-05T14:20:44.666Z,101984.84
2023-02-05T14:23:16.981Z,101984.94
2023-02-05T14:26:06.389Z,101983.28
2023-02-05T14:28:34.592Z,101984.63
2023-02-05T14:31:05.718Z,101988.53
2023-02-05T14:33:43.523Z,101971.41
2023-02-05T14:36:21.274Z,101970.28
2023-02-05T14:39:03.653Z,101972.16
2023-02-05T14:41:33.839Z,101970.59
2023-02-05T14:44:04.379Z,101976.88
2023-02-05T14:46:41.715Z,101970.22
2023-02-05T14:49:23.362Z,101976.63
2023-02-05T14:51:59.229Z,101962.53
2023-02-05T14:54:30.081Z,101970.91
2023-02-05T14:57:17.650Z,101970.75
2023-02-05T14:59:50.029Z,101983.34
2023-02-05T15:02:54.764Z,101981.97
2023-02-05T15:05:46.813Z,101988.72
2023-02-05T15:08:37.820Z,101985.41
2023-02-05T15:11:33.520Z,101991.41
2023-02-05T15:14:19.526Z,101993.31
2023-02-05T15:17:11.528Z,102006.53
2023-02-05T15:19:43.368Z,102006.00
2023-02-05T15:22:30.728Z,102011.00
2023-02-05T15:24:58.232Z,102008.75
2023-02-05T15:27:41.400Z,102007.69
2023-02-05T15:30:16.860Z,102009.91
2023-02-05T15:32:52.977Z,102005.16
2023-02-05T15:35:24.628Z,102012.56
2023-02-05T15:38:04.005Z,102010.88
2023-02-05T15:40:33.681Z,102014.97
2023-02-05T15:43:09.552Z,102013.91
2023-02-05T15:45:44.887Z,102024.66
2023-02-05T15:48:13.603Z,102017.78
2023-02-05T15:50:47.527Z,102021.13
2023-02-05T15:53:35.250Z,102024.41
2023-02-05T15:56:25.068Z,102032.59
2023-02-05T15:58:55.186Z,102044.16
2023-02-05T16:01:28.487Z,102040.75
2023-02-05T16:03:55.214Z,102041.31
2023-02-05T16:06:23.540Z,102045.38
2023-02-05T16:08:52.602Z,102046.06
2023-02-05T16:11:35.200Z,102050.13
2023-02-05T16:14:16.509Z,102054.19
2023-02-05T16:17:08.262Z,102055.91
2023-02-05T16:19:53.726Z,102056.00
2023-02-05T16:22:32.313Z,102053.84
2023-02-05T16:25:03.331Z,102061.38
2023-02-05T16:27:32.630Z,102068.19
2023-02-05T16:30:07.365Z,102078.16
2023-02-05T16:32:38.043Z,102075.16
2023-02-05T16:35:07.898Z,102082.41
2023-02-05T16:37:35.821Z,102082.50
2023-02-05T16:40:06.716Z,102086.31
2023-02-05T16:42:39.029Z,102089.75
2023-02-05T16:45:08.509Z,102090.72
2023-02-05T16:47:36.145Z,102098.63
2023-02-05T16:50:42.586Z,102096.91
2023-02-05T16:53:16.230Z,102101.53
2023-02-05T16:55:44.022Z,102093.88
2023-02-05T16:58:23.115Z,102101.13
2023-02-05T17:01:07.900Z,102104.00
2023-02-05T17:03:37.873Z,102108.50
2023-02-05T17:06:12.256Z,102112.97
2023-02-05T17:08:40.143Z,102108.63
2023-02-05T17:11:27.897Z,102114.84
2023-02-05T17:14:10.227Z,102115.75
2023-02-05T17:16:41.069Z,102117.53
2023-02-05T17:19:24.433Z,102136.09
2023-02-05T17:22:13.849Z,102130.81
2023-02-05T17:24:41.738Z,102124.84
2023-02-05T17:27:28.466Z,102133.63
2023-02-05T17:29:56.803Z,102125.88
2023-02-05T17:32:24.004Z,102120.69
2023-02-05T17:34:50.571Z,102139.28
2023-02-05T17:37:17.183Z,102134.94
2023-02-05T17:39:43.970Z,102127.88
2023-02-05T17:42:23.516Z,102125.22
2023-02-05T17:44:51.085Z,102123.44
2023-02-05T17:47:18.658Z,102123.50
2023-02-05T17:49:45.234Z,102131.53
2023-02-05T17:52:12.235Z,102137.81
2023-02-05T17:54:38.897Z,102139.59
2023-02-05T17:57:19.726Z,102145.88
2023-02-05T17:59:47.413Z,102169.66
2023-02-05T18:02:15.368Z,102167.09
2023-02-05T18:04:42.445Z,102174.13
2023-02-05T18:07:39.373Z,102170.66
2023-02-05T18:10:06.737Z,102179.47
2023-02-05T18:12:33.782Z,102182.97
2023-02-05T18:15:00.371Z,102191.03
2023-02-05T18:17:26.970Z,102194.63
2023-02-05T18:19:53.615Z,102194.69
2023-02-05T18:22:20.327Z,102201.75
2023-02-05T18:24:46.857Z,102201.78
2023-02-05T18:27:13.501Z,102206.28
2023-02-05T18:29:41.723Z,102214.25
2023-02-05T18:32:09.971Z,102216.88
2023-02-05T18:34:36.580Z,102220.47
2023-02-05T18:37:03.172Z,102219.66
2023-02-05T18:39:29.812Z,102222.31
2023-02-05T18:41:57.561Z,102229.44
2023-02-05T18:44:25.700Z,102239.13
2023-02-05T18:46:52.689Z,102236.56
2023-02-05T18:49:19.275Z,102241.88
2023-02-05T18:51:46.053Z,102241.88
2023-02-05T18:54:12.652Z,102251.63
2023-02-05T18:56:39.296Z,102254.28
2023-02-05T18:59:07.889Z,102258.69
2023-02-05T19:01:38.069Z,102261.38
2023-02-05T19:04:08.163Z,102258.78
2023-02-05T19:06:35.253Z,102257.03
2023-02-05T19:09:02.659Z,102258.78
2023-02-05T19:11:30.466Z,102265.81
2023-02-05T19:13:58.701Z,102264.97
2023-02-05T19:16:26.905Z,102269.38
2023-02-05T19:18:53.684Z,102267.66
2023-02-05T19:21:21.821Z,102269.44
2023-02-05T19:23:54.234Z,102271.16
2023-02-05T19:26:24.026Z,102273.81
2023-02-05T19:28:56.811Z,102277.34
2023-02-05T19:31:26.161Z,102280.84
2023-02-05T19:33:52.970Z,102280.84
2023-02-05T19:36:22.633Z,102279.09
2023-02-05T19:38:49.277Z,102279.97
2023-02-05T19:41:18.440Z,102279.09
2023-02-05T19:43:50.883Z,102290.50
2023-02-05T19:46:19.589Z,102285.25
2023-02-05T19:48:46.930Z,102286.09
2023-02-05T19:51:14.859Z,102291.34
2023-02-05T19:53:44.046Z,102298.31
2023-02-05T19:56:17.199Z,102301.81
2023-02-05T19:58:47.632Z,102297.44
2023-02-05T20:01:23.752Z,102300.91
2023-02-05T20:04:17.146Z,102300.03
2023-02-05T20:06:46.109Z,102307.91
2023-02-05T20:09:14.098Z,102307.88
2023-02-05T20:11:42.507Z,102308.72
2023-02-05T20:14:10.491Z,102310.47
2023-02-05T20:16:40.446Z,102309.59
2023-02-05T20:19:09.631Z,102306.94
2023-02-05T20:21:37.192Z,102308.66
2023-02-05T20:24:04.666Z,102308.59
2023-02-05T20:26:31.848Z,102312.13
2023-02-05T20:29:17.051Z,102319.97
2023-02-05T20:31:47.891Z,102316.44
2023-02-05T20:34:21.957Z,102312.94
2023-02-05T20:36:51.448Z,102326.91
2023-02-05T20:39:19.222Z,102322.56
2023-02-05T20:41:47.614Z,102325.16
2023-02-05T20:44:14.720Z,102327.78
2023-02-05T20:46:41.349Z,102325.06
2023-02-05T20:49:09.048Z,102326.78
2023-02-05T20:51:36.536Z,102327.59
2023-02-05T20:54:03.904Z,102328.41
2023-02-05T20:56:31.642Z,102330.13
2023-02-05T20:58:59.647Z,102331.84
2023-02-05T21:01:28.026Z,102328.25
2023-02-05T21:04:00.296Z,102333.41
2023-02-05T21:06:29.904Z,102328.06
2023-02-05T21:08:56.738Z,102341.19
2023-02-05T21:11:24.618Z,102334.22
2023-02-05T21:13:52.003Z,102338.56
2023-02-05T21:16:21.353Z,102347.28
2023-02-05T21:18:49.165Z,102351.56
2023-02-05T21:21:21.871Z,102351.56
2023-02-05T21:23:49.090Z,102349.72
2023-02-05T21:26:21.149Z,102346.16
2023-02-05T21:28:47.884Z,102350.44
2023-02-05T21:31:15.002Z,102352.97
2023-02-05T21:33:41.624Z,102359.03
2023-02-05T21:36:10.793Z,102359.03
2023-02-05T21:38:42.374Z,102367.72
2023-02-05T21:41:17.868Z,102369.47
2023-02-05T21:43:49.646Z,102372.94
2023-02-05T21:46:16.340Z,102382.47
2023-02-05T21:48:46.630Z,102388.56
2023-02-05T21:51:15.147Z,102391.13
2023-02-05T21:53:42.462Z,102391.09
2023-02-05T21:56:11.361Z,102391.06
2023-02-05T21:58:39.502Z,102398.97
2023-02-05T22:01:14.869Z,102409.50
2023-02-05T22:03:42.988Z,102402.50
2023-02-05T22:06:09.620Z,102395.50
2023-02-05T22:08:38.028Z,102401.66
2023-02-05T22:11:06.664Z,102401.56
2023-02-05T22:13:35.241Z,102414.50
2023-02-05T22:16:07.844Z,102416.19
2023-02-05T22:18:35.618Z,102430.97
2023-02-05T22:21:22.809Z,102431.69
2023-02-05T22:23:51.577Z,102432.47
2023-02-05T22:26:20.363Z,102435.03
2023-02-05T22:28:47.244Z,102433.22
2023-02-05T22:31:16.540Z,102431.41
2023-02-05T22:33:45.885Z,102426.97
2023-02-05T22:36:13.915Z,102431.28
2023-02-05T22:38:42.185Z,102429.59
2023-02-05T22:41:14.954Z,102433.06
2023-02-05T22:43:42.151Z,102433.09
2023-02-05T22:46:12.297Z,102438.31
2023-02-05T22:48:40.940Z,102433.91
2023-02-05T22:51:10.636Z,102433.03
2023-02-05T22:53:37.496Z,102437.41
2023-02-05T22:56:10.358Z,102433.03
2023-02-05T22:58:42.134Z,102436.53
2023-02-05T23:01:08.999Z,102444.34
2023-02-05T23:03:36.218Z,102445.13
2023-02-05T23:06:11.516Z,102437.25
2023-02-05T23:08:38.643Z,102432.84
2023-02-05T23:11:10.601Z,102444.09
2023-02-05T23:13:38.557Z,102445.72
2023-02-05T23:16:13.455Z,102439.50
2023-02-05T23:18:41.798Z,102440.34
2023-02-05T23:21:18.760Z,102449.09
2023-02-05T23:23:46.351Z,102439.44
2023-02-05T23:26:19.608Z,102448.16
2023-02-05T23:28:47.443Z,102449.84
2023-02-05T23:31:14.309Z,102450.66
2023-02-05T23:33:41.187Z,102448.78
2023-02-05T23:36:08.967Z,102450.47
2023-02-05T23:38:36.003Z,102455.75
2023-02-05T23:41:03.594Z,102458.38
2023-02-05T23:43:32.788Z,102466.22
2023-02-05T23:45:59.926Z,102462.69
2023-02-05T23:48:26.664Z,102465.25
2023-02-05T23:50:54.998Z,102453.84
2023-02-05T23:53:21.677Z,102456.41
2023-02-05T23:55:49.653Z,102459.88
2023-02-05T23:58:18.148Z,102453.75
